sensor_id;sensor_type;location;lat;lon;timestamp;pressure;altitude;pressure_sealevel;temperature;humidity
77092;BME280;66032;48.252;11.638;2023-04-03T00:00:56;96567.66;;;2.93;81.18
77092;BME280;66032;48.252;11.638;2023-04-03T00:03:24;96568.41;;;2.95;81.75
77092;BME280;66032;48.252;11.638;2023-04-03T00:05:51;96563.09;;;2.97;80.83
77092;BME280;66032;48.252;11.638;2023-04-03T00:08:19;96561.50;;;2.94;81.38
77092;BME280;66032;48.252;11.638;2023-04-03T00:10:47;96566.56;;;2.97;81.70
77092;BME280;66032;48.252;11.638;2023-04-03T00:13:14;96563.09;;;2.97;81.53
77092;BME280;66032;48.252;11.638;2023-04-03T00:15:42;96561.31;;;2.97;81.82
77092;BME280;66032;48.252;11.638;2023-04-03T00:18:10;96566.47;;;2.99;82.54
77092;BME280;66032;48.252;11.638;2023-04-03T00:20:37;96561.31;;;2.97;81.93
77092;BME280;66032;48.252;11.638;2023-04-03T00:23:05;96565.03;;;2.93;81.66
77092;BME280;66032;48.252;11.638;2023-04-03T00:25:32;96565.25;;;2.90;81.37
77092;BME280;66032;48.252;11.638;2023-04-03T00:28:00;96567.13;;;2.88;81.60
77092;BME280;66032;48.252;11.638;2023-04-03T00:30:28;96561.03;;;2.88;81.57
77092;BME280;66032;48.252;11.638;2023-04-03T00:32:55;96568.06;;;2.87;82.17
77092;BME280;66032;48.252;11.638;2023-04-03T00:35:23;96563.84;;;2.85;82.08
77092;BME280;66032;48.252;11.638;2023-04-03T00:37:52;96568.25;;;2.84;82.14
77092;BME280;66032;48.252;11.638;2023-04-03T00:40:22;96565.66;;;2.84;81.90
77092;BME280;66032;48.252;11.638;2023-04-03T00:42:56;96562.28;;;2.82;81.97
77092;BME280;66032;48.252;11.638;2023-04-03T00:45:32;96559.66;;;2.82;82.34
77092;BME280;66032;48.252;11.638;2023-04-03T00:48:01;96565.81;;;2.81;81.99
77092;BME280;66032;48.252;11.638;2023-04-03T00:50:30;96561.59;;;2.79;82.59
77092;BME280;66032;48.252;11.638;2023-04-03T00:52:58;96563.38;;;2.78;81.99
77092;BME280;66032;48.252;11.638;2023-04-03T00:55:25;96563.28;;;2.80;82.02
77092;BME280;66032;48.252;11.638;2023-04-03T00:57:54;96561.59;;;2.79;82.35
77092;BME280;66032;48.252;11.638;2023-04-03T01:00:22;96565.16;;;2.78;81.65
77092;BME280;66032;48.252;11.638;2023-04-03T01:02:51;96553.75;;;2.79;82.71
77092;BME280;66032;48.252;11.638;2023-04-03T01:05:20;96565.75;;;2.83;83.15
77092;BME280;66032;48.252;11.638;2023-04-03T01:07:49;96565.75;;;2.83;82.31
77092;BME280;66032;48.252;11.638;2023-04-03T01:10:18;96561.34;;;2.83;82.30
77092;BME280;66032;48.252;11.638;2023-04-03T01:12:49;96566.47;;;2.85;82.24
77092;BME280;66032;48.252;11.638;2023-04-03T01:15:26;96561.03;;;2.88;82.50
77092;BME280;66032;48.252;11.638;2023-04-03T01:17:57;96561.03;;;2.88;81.96
77092;BME280;66032;48.252;11.638;2023-04-03T01:25:50;96560.88;;;2.91;81.44
77092;BME280;66032;48.252;11.638;2023-04-03T01:28:30;96567.66;;;2.93;81.15
77092;BME280;66032;48.252;11.638;2023-04-03T01:33:39;96570.09;;;2.96;81.11
77092;BME280;66032;48.252;11.638;2023-04-03T01:36:09;96566.47;;;2.99;81.00
77092;BME280;66032;48.252;11.638;2023-04-03T01:38:37;96569.06;;;2.99;79.43
77092;BME280;66032;48.252;11.638;2023-04-03T01:41:04;96569.84;;;3.01;80.03
77092;BME280;66032;48.252;11.638;2023-04-03T01:43:31;96570.56;;;3.03;80.68
77092;BME280;66032;48.252;11.638;2023-04-03T01:45:59;96572.16;;;3.05;79.32
77092;BME280;66032;48.252;11.638;2023-04-03T01:48:26;96571.13;;;3.08;80.16
77092;BME280;66032;48.252;11.638;2023-04-03T01:50:54;96571.97;;;3.09;78.78
77092;BME280;66032;48.252;11.638;2023-04-03T01:53:21;96575.22;;;3.12;80.82
77092;BME280;66032;48.252;11.638;2023-04-03T01:55:48;96569.97;;;3.12;79.43
77092;BME280;66032;48.252;11.638;2023-04-03T01:58:16;96569.69;;;3.17;80.44
77092;BME280;66032;48.252;11.638;2023-04-03T02:00:43;96562.56;;;3.19;80.56
77092;BME280;66032;48.252;11.638;2023-04-03T02:03:11;96560.78;;;3.19;79.46
77092;BME280;66032;48.252;11.638;2023-04-03T02:05:39;96566.78;;;3.21;79.62
77092;BME280;66032;48.252;11.638;2023-04-03T02:08:06;96565.75;;;3.24;79.77
77092;BME280;66032;48.252;11.638;2023-04-03T02:10:34;96565.66;;;3.25;79.42
77092;BME280;66032;48.252;11.638;2023-04-03T02:13:02;96570.91;;;3.25;78.67
77092;BME280;66032;48.252;11.638;2023-04-03T02:15:30;96565.66;;;3.25;78.38
77092;BME280;66032;48.252;11.638;2023-04-03T02:17:57;96568.28;;;3.25;79.25
77092;BME280;66032;48.252;11.638;2023-04-03T02:20:25;96562.91;;;3.27;79.86
77092;BME280;66032;48.252;11.638;2023-04-03T02:22:53;96564.50;;;3.29;79.63
77092;BME280;66032;48.252;11.638;2023-04-03T02:25:20;96566.19;;;3.30;78.80
77092;BME280;66032;48.252;11.638;2023-04-03T02:27:49;96561.88;;;3.29;78.45
77092;BME280;66032;48.252;11.638;2023-04-03T02:30:17;96558.44;;;3.29;77.70
77092;BME280;66032;48.252;11.638;2023-04-03T02:32:44;96562.81;;;3.28;77.36
77092;BME280;66032;48.252;11.638;2023-04-03T02:35:12;96563.03;;;3.25;76.55
77092;BME280;66032;48.252;11.638;2023-04-03T02:37:40;96560.41;;;3.25;77.23
77092;BME280;66032;48.252;11.638;2023-04-03T02:40:08;96560.50;;;3.24;76.56
77092;BME280;66032;48.252;11.638;2023-04-03T02:42:35;96557.03;;;3.23;77.65
77092;BME280;66032;48.252;11.638;2023-04-03T02:45:03;96559.66;;;3.23;77.76
77092;BME280;66032;48.252;11.638;2023-04-03T02:47:30;96558.06;;;3.21;77.49
77092;BME280;66032;48.252;11.638;2023-04-03T02:49:57;96559.22;;;3.17;76.47
77092;BME280;66032;48.252;11.638;2023-04-03T02:52:25;96561.00;;;3.16;76.91
77092;BME280;66032;48.252;11.638;2023-04-03T02:54:55;96565.41;;;3.16;76.54
77092;BME280;66032;48.252;11.638;2023-04-03T02:57:22;96563.06;;;3.11;76.57
77092;BME280;66032;48.252;11.638;2023-04-03T02:59:49;96564.66;;;3.14;78.00
77092;BME280;66032;48.252;11.638;2023-04-03T03:02:17;96563.81;;;3.13;77.85
77092;BME280;66032;48.252;11.638;2023-04-03T03:04:44;96565.97;;;3.07;75.98
77092;BME280;66032;48.252;11.638;2023-04-03T03:07:11;96563.34;;;3.07;76.58
77092;BME280;66032;48.252;11.638;2023-04-03T03:09:38;96563.34;;;3.07;76.85
77092;BME280;66032;48.252;11.638;2023-04-03T03:12:06;96564.28;;;3.05;76.26
77092;BME280;66032;48.252;11.638;2023-04-03T03:14:33;96566.16;;;3.03;77.83
77092;BME280;66032;48.252;11.638;2023-04-03T03:17:01;96565.13;;;3.06;77.88
77092;BME280;66032;48.252;11.638;2023-04-03T03:19:28;96562.59;;;3.04;77.54
77092;BME280;66032;48.252;11.638;2023-04-03T03:21:56;96566.16;;;3.03;77.51
77092;BME280;66032;48.252;11.638;2023-04-03T03:24:23;96563.63;;;3.02;76.55
77092;BME280;66032;48.252;11.638;2023-04-03T03:26:51;96567.94;;;3.03;78.16
77092;BME280;66032;48.252;11.638;2023-04-03T03:29:19;96569.72;;;3.02;77.38
77092;BME280;66032;48.252;11.638;2023-04-03T03:31:46;96565.41;;;3.01;77.84
77092;BME280;66032;48.252;11.638;2023-04-03T03:34:13;96569.84;;;3.01;77.61
77092;BME280;66032;48.252;11.638;2023-04-03T03:36:41;96573.25;;;3.01;77.54
77092;BME280;66032;48.252;11.638;2023-04-03T03:39:09;96569.72;;;3.02;77.63
77092;BME280;66032;48.252;11.638;2023-04-03T03:41:37;96564.47;;;3.02;78.20
77092;BME280;66032;48.252;11.638;2023-04-03T03:44:04;96567.94;;;3.03;78.19
77092;BME280;66032;48.252;11.638;2023-04-03T03:46:32;96559.22;;;3.02;77.77
77092;BME280;66032;48.252;11.638;2023-04-03T03:48:59;96574.09;;;3.02;77.58
77092;BME280;66032;48.252;11.638;2023-04-03T03:51:27;96562.69;;;3.03;77.42
77092;BME280;66032;48.252;11.638;2023-04-03T03:53:56;96573.91;;;3.05;78.69
77092;BME280;66032;48.252;11.638;2023-04-03T03:56:23;96570.38;;;3.06;78.76
77092;BME280;66032;48.252;11.638;2023-04-03T03:58:51;96568.59;;;3.07;78.54
77092;BME280;66032;48.252;11.638;2023-04-03T04:01:18;96567.56;;;3.09;78.32
77092;BME280;66032;48.252;11.638;2023-04-03T04:03:48;96563.06;;;3.11;79.95
77092;BME280;66032;48.252;11.638;2023-04-03T04:06:19;96566.34;;;3.15;78.59
77092;BME280;66032;48.252;11.638;2023-04-03T04:08:47;96572.41;;;3.15;77.86
77092;BME280;66032;48.252;11.638;2023-04-03T04:11:14;96568.09;;;3.14;78.04
77092;BME280;66032;48.252;11.638;2023-04-03T04:13:43;96566.25;;;3.16;77.46
77092;BME280;66032;48.252;11.638;2023-04-03T04:16:14;96564.81;;;3.11;77.18
77092;BME280;66032;48.252;11.638;2023-04-03T04:18:41;96574.38;;;3.12;78.76
77092;BME280;66032;48.252;11.638;2023-04-03T04:21:08;96569.22;;;3.10;76.86
77092;BME280;66032;48.252;11.638;2023-04-03T04:23:37;96571.22;;;3.07;77.44
77092;BME280;66032;48.252;11.638;2023-04-03T04:26:04;96574.84;;;3.04;77.36
77092;BME280;66032;48.252;11.638;2023-04-03T04:28:34;96567.22;;;3.01;77.46
77092;BME280;66032;48.252;11.638;2023-04-03T04:31:03;96570.75;;;3.00;77.61
77092;BME280;66032;48.252;11.638;2023-04-03T04:33:31;96570.00;;;2.98;77.48
77092;BME280;66032;48.252;11.638;2023-04-03T04:36:01;96574.31;;;2.99;77.90
77092;BME280;66032;48.252;11.638;2023-04-03T04:38:28;96577.13;;;2.96;77.49
77092;BME280;66032;48.252;11.638;2023-04-03T04:40:56;96576.38;;;2.94;77.67
77092;BME280;66032;48.252;11.638;2023-04-03T04:43:23;96585.91;;;2.95;78.11
77092;BME280;66032;48.252;11.638;2023-04-03T04:46:07;96581.72;;;2.92;77.87
77092;BME280;66032;48.252;11.638;2023-04-03T04:48:40;96581.81;;;2.91;77.49
77092;BME280;66032;48.252;11.638;2023-04-03T04:51:10;96582.00;;;2.88;77.13
77092;BME280;66032;48.252;11.638;2023-04-03T04:53:38;96580.31;;;2.87;78.18
77092;BME280;66032;48.252;11.638;2023-04-03T04:56:07;96588.06;;;2.88;78.45
77092;BME280;66032;48.252;11.638;2023-04-03T04:58:36;96589.66;;;2.91;78.29
77092;BME280;66032;48.252;11.638;2023-04-03T05:01:08;96590.41;;;2.93;79.27
77092;BME280;66032;48.252;11.638;2023-04-03T05:03:45;96586.00;;;2.93;78.55
77092;BME280;66032;48.252;11.638;2023-04-03T05:06:13;96587.59;;;2.96;78.47
77092;BME280;66032;48.252;11.638;2023-04-03T05:08:40;96587.59;;;2.96;78.86
77092;BME280;66032;48.252;11.638;2023-04-03T05:11:08;96589.38;;;2.95;77.75
77092;BME280;66032;48.252;11.638;2023-04-03T05:13:35;96592.72;;;2.97;78.06
77092;BME280;66032;48.252;11.638;2023-04-03T05:16:03;96595.44;;;2.96;78.12
77092;BME280;66032;48.252;11.638;2023-04-03T05:18:31;96597.88;;;2.99;78.08
77092;BME280;66032;48.252;11.638;2023-04-03T05:21:03;96596.09;;;2.99;77.79
77092;BME280;66032;48.252;11.638;2023-04-03T05:23:35;96596.00;;;3.01;77.59
77092;BME280;66032;48.252;11.638;2023-04-03T05:26:03;96595.91;;;3.02;77.95
77092;BME280;66032;48.252;11.638;2023-04-03T05:28:31;96599.19;;;3.06;78.58
77092;BME280;66032;48.252;11.638;2023-04-03T05:30:59;96597.31;;;3.08;77.88
77092;BME280;66032;48.252;11.638;2023-04-03T05:33:32;96595.22;;;3.13;78.84
77092;BME280;66032;48.252;11.638;2023-04-03T05:36:04;96596.81;;;3.16;77.98
77092;BME280;66032;48.252;11.638;2023-04-03T05:38:36;96602.50;;;3.22;78.45
77092;BME280;66032;48.252;11.638;2023-04-03T05:41:04;96600.56;;;3.26;78.35
77092;BME280;66032;48.252;11.638;2023-04-03T05:43:32;96602.03;;;3.30;78.27
77092;BME280;66032;48.252;11.638;2023-04-03T05:46:01;96600.06;;;3.33;78.01
77092;BME280;66032;48.252;11.638;2023-04-03T05:48:29;96598.16;;;3.35;77.60
77092;BME280;66032;48.252;11.638;2023-04-03T05:50:57;96605.75;;;3.40;77.59
77092;BME280;66032;48.252;11.638;2023-04-03T05:53:28;96604.41;;;3.47;78.39
77092;BME280;66032;48.252;11.638;2023-04-03T05:56:01;96598.06;;;3.51;77.66
77092;BME280;66032;48.252;11.638;2023-04-03T05:58:31;96603.66;;;3.59;77.46
77092;BME280;66032;48.252;11.638;2023-04-03T06:00:59;96601.56;;;3.64;76.70
77092;BME280;66032;48.252;11.638;2023-04-03T06:03:26;96608.25;;;3.68;76.13
77092;BME280;66032;48.252;11.638;2023-04-03T06:05:54;96594.69;;;3.76;76.42
77092;BME280;66032;48.252;11.638;2023-04-03T06:08:23;96600.47;;;3.81;76.67
77092;BME280;66032;48.252;11.638;2023-04-03T06:10:50;96598.91;;;3.91;77.11
77092;BME280;66032;48.252;11.638;2023-04-03T06:13:18;96603.34;;;4.03;77.22
77092;BME280;66032;48.252;11.638;2023-04-03T06:15:45;96607.22;;;4.10;76.12
77092;BME280;66032;48.252;11.638;2023-04-03T06:18:17;96608.41;;;4.19;75.42
77092;BME280;66032;48.252;11.638;2023-04-03T06:20:45;96606.34;;;4.24;75.12
77092;BME280;66032;48.252;11.638;2023-04-03T06:23:13;96609.91;;;4.36;75.46
77092;BME280;66032;48.252;11.638;2023-04-03T06:25:42;96609.28;;;4.45;74.78
77092;BME280;66032;48.252;11.638;2023-04-03T06:28:10;96616.44;;;4.55;74.78
77092;BME280;66032;48.252;11.638;2023-04-03T06:30:43;96611.50;;;4.64;73.89
77092;BME280;66032;48.252;11.638;2023-04-03T06:33:12;96617.25;;;4.69;73.47
77092;BME280;66032;48.252;11.638;2023-04-03T06:35:39;96614.00;;;4.78;72.87
77092;BME280;66032;48.252;11.638;2023-04-03T06:38:09;96616.44;;;4.81;72.51
77092;BME280;66032;48.252;11.638;2023-04-03T06:40:43;96621.69;;;4.81;70.56
77092;BME280;66032;48.252;11.638;2023-04-03T06:43:11;96618.97;;;4.82;69.65
77092;BME280;66032;48.252;11.638;2023-04-03T06:45:41;96619.69;;;4.84;70.48
77092;BME280;66032;48.252;11.638;2023-04-03T06:48:17;96617.59;;;4.89;70.61
77092;BME280;66032;48.252;11.638;2023-04-03T06:50:59;96619.47;;;4.87;69.79
77092;BME280;66032;48.252;11.638;2023-04-03T06:53:33;96617.38;;;4.92;70.34
77092;BME280;66032;48.252;11.638;2023-04-03T06:56:04;96623.16;;;4.97;70.94
77092;BME280;66032;48.252;11.638;2023-04-03T06:58:37;96625.88;;;4.96;69.98
77092;BME280;66032;48.252;11.638;2023-04-03T07:01:09;96625.56;;;4.88;69.05
77092;BME280;66032;48.252;11.638;2023-04-03T07:03:38;96632.28;;;4.79;68.46
77092;BME280;66032;48.252;11.638;2023-04-03T07:06:15;96625.78;;;4.72;68.81
77092;BME280;66032;48.252;11.638;2023-04-03T07:08:47;96635.03;;;4.65;68.12
77092;BME280;66032;48.252;11.638;2023-04-03T07:11:31;96631.34;;;4.55;69.85
77092;BME280;66032;48.252;11.638;2023-04-03T07:14:05;96636.06;;;4.50;69.65
77092;BME280;66032;48.252;11.638;2023-04-03T07:16:35;96643.72;;;4.53;69.97
77092;BME280;66032;48.252;11.638;2023-04-03T07:19:07;96635.00;;;4.40;68.87
77092;BME280;66032;48.252;11.638;2023-04-03T07:21:47;96649.16;;;4.37;69.14
77092;BME280;66032;48.252;11.638;2023-04-03T07:24:17;96652.84;;;4.35;70.19
77092;BME280;66032;48.252;11.638;2023-04-03T07:26:49;96654.75;;;4.33;69.51
77092;BME280;66032;48.252;11.638;2023-04-03T07:29:20;96659.75;;;4.23;69.44
77092;BME280;66032;48.252;11.638;2023-04-03T07:31:48;96657.88;;;4.25;70.45
77092;BME280;66032;48.252;11.638;2023-04-03T07:34:16;96667.00;;;4.32;70.56
77092;BME280;66032;48.252;11.638;2023-04-03T07:36:44;96668.47;;;4.36;70.54
77092;BME280;66032;48.252;11.638;2023-04-03T07:39:14;96666.50;;;4.40;70.18
77092;BME280;66032;48.252;11.638;2023-04-03T07:41:47;96662.09;;;4.40;70.59
77092;BME280;66032;48.252;11.638;2023-04-03T07:44:24;96668.09;;;4.42;71.20
77092;BME280;66032;48.252;11.638;2023-04-03T07:46:52;96675.75;;;4.45;70.35
77092;BME280;66032;48.252;11.638;2023-04-03T07:49:29;96671.88;;;4.51;69.82
77092;BME280;66032;48.252;11.638;2023-04-03T07:52:12;96682.81;;;4.57;69.72
77092;BME280;66032;48.252;11.638;2023-04-03T07:54:42;96676.09;;;4.66;69.83
77092;BME280;66032;48.252;11.638;2023-04-03T07:57:21;96681.78;;;4.60;69.96
77092;BME280;66032;48.252;11.638;2023-04-03T08:00:46;96671.78;;;4.78;69.90
77092;BME280;66032;48.252;11.638;2023-04-03T08:08:26;96681.38;;;4.91;69.77
77092;BME280;66032;48.252;11.638;2023-04-03T08:11:02;96679.59;;;4.92;69.41
77092;BME280;66032;48.252;11.638;2023-04-03T08:14:25;96679.13;;;4.85;69.16
77092;BME280;66032;48.252;11.638;2023-04-03T08:26:13;96678.50;;;5.20;67.72
77092;BME280;66032;48.252;11.638;2023-04-03T08:28:47;96675.66;;;5.36;68.05
77092;BME280;66032;48.252;11.638;2023-04-03T08:31:26;96681.09;;;5.45;67.26
77092;BME280;66032;48.252;11.638;2023-04-03T08:39:05;96694.88;;;5.49;66.17
77092;BME280;66032;48.252;11.638;2023-04-03T08:41:51;96678.19;;;5.24;65.64
77092;BME280;66032;48.252;11.638;2023-04-03T08:44:34;96690.69;;;5.33;66.16
77092;BME280;66032;48.252;11.638;2023-04-03T08:50:33;96683.06;;;5.67;66.46
77092;BME280;66032;48.252;11.638;2023-04-03T08:53:03;96691.22;;;5.88;65.34
77092;BME280;66032;48.252;11.638;2023-04-03T08:56:00;96685.28;;;5.97;64.06
77092;BME280;66032;48.252;11.638;2023-04-03T08:58:39;96694.38;;;6.17;63.93
77092;BME280;66032;48.252;11.638;2023-04-03T09:03:42;96686.09;;;6.45;63.66
77092;BME280;66032;48.252;11.638;2023-04-03T09:06:20;96685.00;;;6.60;62.11
77092;BME280;66032;48.252;11.638;2023-04-03T09:12:06;96691.53;;;6.55;61.78
77092;BME280;66032;48.252;11.638;2023-04-03T09:15:02;96688.69;;;6.58;61.71
77092;BME280;66032;48.252;11.638;2023-04-03T09:20:24;96692.69;;;6.74;61.55
77092;BME280;66032;48.252;11.638;2023-04-03T09:22:53;96688.72;;;6.69;61.64
77092;BME280;66032;48.252;11.638;2023-04-03T09:25:27;96689.06;;;6.64;61.64
77092;BME280;66032;48.252;11.638;2023-04-03T09:28:01;96686.25;;;6.43;61.58
77092;BME280;66032;48.252;11.638;2023-04-03T09:30:30;96685.91;;;6.24;61.79
77092;BME280;66032;48.252;11.638;2023-04-03T09:32:57;96694.00;;;6.10;61.71
77092;BME280;66032;48.252;11.638;2023-04-03T09:35:29;96687.72;;;6.00;62.25
77092;BME280;66032;48.252;11.638;2023-04-03T09:40:43;96701.28;;;5.57;64.10
77092;BME280;66032;48.252;11.638;2023-04-03T09:45:46;96695.41;;;5.28;64.79
77092;BME280;66032;48.252;11.638;2023-04-03T09:53:37;96697.34;;;5.01;64.49
77092;BME280;66032;48.252;11.638;2023-04-03T09:56:28;96694.50;;;4.91;64.58
77092;BME280;66032;48.252;11.638;2023-04-03T10:04:12;96691.84;;;4.79;65.65
77092;BME280;66032;48.252;11.638;2023-04-03T10:06:54;96689.88;;;4.82;64.92
77092;BME280;66032;48.252;11.638;2023-04-03T10:09:30;96683.66;;;4.96;66.10
77092;BME280;66032;48.252;11.638;2023-04-03T10:12:11;96687.56;;;5.03;65.16
77092;BME280;66032;48.252;11.638;2023-04-03T10:14:55;96696.28;;;4.91;66.44
77092;BME280;66032;48.252;11.638;2023-04-03T10:25:43;96693.00;;;4.62;64.05
77092;BME280;66032;48.252;11.638;2023-04-03T10:31:21;96697.31;;;4.63;62.27
77092;BME280;66032;48.252;11.638;2023-04-03T10:34:13;96678.94;;;4.76;63.07
77092;BME280;66032;48.252;11.638;2023-04-03T10:42:39;96694.16;;;4.58;61.64
77092;BME280;66032;48.252;11.638;2023-04-03T10:46:11;96692.13;;;4.49;61.52
77092;BME280;66032;48.252;11.638;2023-04-03T10:53:45;96696.44;;;4.50;62.46
77092;BME280;66032;48.252;11.638;2023-04-03T11:01:52;96683.66;;;4.71;59.15
77092;BME280;66032;48.252;11.638;2023-04-03T11:04:24;96685.47;;;4.83;59.67
77092;BME280;66032;48.252;11.638;2023-04-03T11:07:08;96694.19;;;4.96;59.00
77092;BME280;66032;48.252;11.638;2023-04-03T11:09:43;96677.56;;;4.95;57.80
77092;BME280;66032;48.252;11.638;2023-04-03T11:12:18;96690.50;;;4.99;56.47
77092;BME280;66032;48.252;11.638;2023-04-03T11:14:51;96675.59;;;4.99;56.12
77092;BME280;66032;48.252;11.638;2023-04-03T11:17:45;96675.56;;;5.24;56.85
77092;BME280;66032;48.252;11.638;2023-04-03T11:20:20;96674.69;;;5.49;54.25
77092;BME280;66032;48.252;11.638;2023-04-03T11:23:03;96674.31;;;5.66;53.32
77092;BME280;66032;48.252;11.638;2023-04-03T11:26:07;96664.94;;;5.75;52.87
77092;BME280;66032;48.252;11.638;2023-04-03T11:29:05;96663.09;;;6.01;52.01
77092;BME280;66032;48.252;11.638;2023-04-03T11:32:18;96673.09;;;6.43;50.95
77092;BME280;66032;48.252;11.638;2023-04-03T11:34:54;96665.97;;;6.68;48.89
77092;BME280;66032;48.252;11.638;2023-04-03T11:37:37;96666.38;;;6.97;50.77
77092;BME280;66032;48.252;11.638;2023-04-03T11:43:04;96656.34;;;7.24;49.53
77092;BME280;66032;48.252;11.638;2023-04-03T11:45:37;96654.03;;;7.31;48.02
77092;BME280;66032;48.252;11.638;2023-04-03T11:50:59;96654.19;;;7.18;48.53
77092;BME280;66032;48.252;11.638;2023-04-03T11:53:36;96647.72;;;7.11;47.76
77092;BME280;66032;48.252;11.638;2023-04-03T12:01:51;96637.97;;;7.11;49.18
77092;BME280;66032;48.252;11.638;2023-04-03T12:04:23;96642.66;;;7.41;48.67
77092;BME280;66032;48.252;11.638;2023-04-03T12:07:13;96632.41;;;7.70;49.05
77092;BME280;66032;48.252;11.638;2023-04-03T12:12:32;96619.94;;;7.83;47.58
77092;BME280;66032;48.252;11.638;2023-04-03T12:15:38;96616.56;;;7.81;48.43
77092;BME280;66032;48.252;11.638;2023-04-03T12:18:42;96625.78;;;7.87;46.67
77092;BME280;66032;48.252;11.638;2023-04-03T12:21:12;96610.88;;;7.97;46.91
77092;BME280;66032;48.252;11.638;2023-04-03T12:29:27;96613.06;;;8.35;47.31
77092;BME280;66032;48.252;11.638;2023-04-03T12:38:50;96607.38;;;8.08;45.62
77092;BME280;66032;48.252;11.638;2023-04-03T12:41:21;96620.03;;;7.93;46.37
77092;BME280;66032;48.252;11.638;2023-04-03T12:46:19;96613.94;;;7.70;44.93
77092;BME280;66032;48.252;11.638;2023-04-03T12:48:53;96610.94;;;7.75;45.36
77092;BME280;66032;48.252;11.638;2023-04-03T12:54:03;96613.81;;;7.72;45.05
77092;BME280;66032;48.252;11.638;2023-04-03T12:56:32;96597.53;;;7.78;45.12
77092;BME280;66032;48.252;11.638;2023-04-03T12:59:23;96597.34;;;7.90;46.56
77092;BME280;66032;48.252;11.638;2023-04-03T13:04:22;96600.72;;;7.81;48.05
77092;BME280;66032;48.252;11.638;2023-04-03T13:06:50;96590.44;;;7.78;48.61
77092;BME280;66032;48.252;11.638;2023-04-03T13:12:13;96606.41;;;7.66;49.38
77092;BME280;66032;48.252;11.638;2023-04-03T13:14:51;96595.03;;;7.65;47.59
77092;BME280;66032;48.252;11.638;2023-04-03T13:17:21;96596.47;;;7.69;48.84
77092;BME280;66032;48.252;11.638;2023-04-03T13:19:49;96601.59;;;7.71;46.81
77092;BME280;66032;48.252;11.638;2023-04-03T13:22:32;96597.03;;;7.73;46.59
77092;BME280;66032;48.252;11.638;2023-04-03T13:25:06;96599.38;;;7.87;47.08
77092;BME280;66032;48.252;11.638;2023-04-03T13:27:34;96591.94;;;7.92;46.38
77092;BME280;66032;48.252;11.638;2023-04-03T13:30:03;96592.59;;;8.05;46.56
77092;BME280;66032;48.252;11.638;2023-04-03T13:32:31;96594.16;;;8.08;46.21
77092;BME280;66032;48.252;11.638;2023-04-03T13:34:59;96598.44;;;8.20;46.74
77092;BME280;66032;48.252;11.638;2023-04-03T13:37:55;96591.78;;;8.36;45.88
77092;BME280;66032;48.252;11.638;2023-04-03T13:40:22;96588.50;;;8.44;46.36
77092;BME280;66032;48.252;11.638;2023-04-03T13:43:06;96591.06;;;8.55;44.49
77092;BME280;66032;48.252;11.638;2023-04-03T13:45:34;96580.88;;;8.71;44.59
77092;BME280;66032;48.252;11.638;2023-04-03T13:48:14;96589.13;;;8.78;42.73
77092;BME280;66032;48.252;11.638;2023-04-03T13:53:18;96583.97;;;8.56;43.96
77092;BME280;66032;48.252;11.638;2023-04-03T13:56:19;96583.41;;;8.52;42.73
77092;BME280;66032;48.252;11.638;2023-04-03T13:58:59;96584.06;;;8.45;43.09
77092;BME280;66032;48.252;11.638;2023-04-03T14:01:56;96579.75;;;8.44;42.92
77092;BME280;66032;48.252;11.638;2023-04-03T14:07:03;96568.56;;;8.19;43.38
77092;BME280;66032;48.252;11.638;2023-04-03T14:09:31;96572.44;;;8.04;43.35
77092;BME280;66032;48.252;11.638;2023-04-03T14:12:35;96573.97;;;7.86;41.87
77092;BME280;66032;48.252;11.638;2023-04-03T14:15:25;96578.22;;;7.77;43.26
77092;BME280;66032;48.252;11.638;2023-04-03T14:17:54;96565.34;;;7.84;42.98
77092;BME280;66032;48.252;11.638;2023-04-03T14:20:25;96566.63;;;7.89;42.82
77092;BME280;66032;48.252;11.638;2023-04-03T14:22:54;96569.53;;;7.86;42.79
77092;BME280;66032;48.252;11.638;2023-04-03T14:25:22;96566.09;;;7.75;43.46
77092;BME280;66032;48.252;11.638;2023-04-03T14:27:53;96559.53;;;7.58;43.92
77092;BME280;66032;48.252;11.638;2023-04-03T14:30:28;96573.72;;;7.46;43.30
77092;BME280;66032;48.252;11.638;2023-04-03T14:32:56;96567.50;;;7.36;44.18
77092;BME280;66032;48.252;11.638;2023-04-03T14:35:25;96566.06;;;7.32;43.40
77092;BME280;66032;48.252;11.638;2023-04-03T14:37:53;96563.56;;;7.30;42.77
77092;BME280;66032;48.252;11.638;2023-04-03T14:40:24;96569.94;;;7.28;43.49
77092;BME280;66032;48.252;11.638;2023-04-03T14:42:55;96563.81;;;7.16;44.27
77092;BME280;66032;48.252;11.638;2023-04-03T14:45:24;96564.16;;;7.11;43.12
77092;BME280;66032;48.252;11.638;2023-04-03T14:47:56;96567.56;;;7.02;42.99
77092;BME280;66032;48.252;11.638;2023-04-03T14:50:27;96569.91;;;6.72;44.35
77092;BME280;66032;48.252;11.638;2023-04-03T14:52:57;96575.91;;;6.52;42.97
77092;BME280;66032;48.252;11.638;2023-04-03T14:55:29;96578.56;;;6.28;43.18
77092;BME280;66032;48.252;11.638;2023-04-03T14:57:57;96579.03;;;6.11;43.79
77092;BME280;66032;48.252;11.638;2023-04-03T15:00:28;96576.63;;;5.84;42.61
77092;BME280;66032;48.252;11.638;2023-04-03T15:02:55;96573.94;;;5.72;43.71
77092;BME280;66032;48.252;11.638;2023-04-03T15:05:23;96572.59;;;5.67;45.07
77092;BME280;66032;48.252;11.638;2023-04-03T15:07:53;96571.22;;;5.61;45.57
77092;BME280;66032;48.252;11.638;2023-04-03T15:10:25;96566.31;;;5.57;46.77
77092;BME280;66032;48.252;11.638;2023-04-03T15:12:53;96568.03;;;5.45;44.95
77092;BME280;66032;48.252;11.638;2023-04-03T15:15:22;96571.41;;;5.47;45.47
77092;BME280;66032;48.252;11.638;2023-04-03T15:17:54;96578.69;;;5.44;45.83
77092;BME280;66032;48.252;11.638;2023-04-03T15:20:24;96574.94;;;5.35;44.23
77092;BME280;66032;48.252;11.638;2023-04-03T15:22:52;96576.09;;;5.31;45.25
77092;BME280;66032;48.252;11.638;2023-04-03T15:25:19;96573.16;;;5.23;45.14
77092;BME280;66032;48.252;11.638;2023-04-03T15:27:47;96572.66;;;5.18;44.18
77092;BME280;66032;48.252;11.638;2023-04-03T15:30:17;96575.41;;;5.16;43.16
77092;BME280;66032;48.252;11.638;2023-04-03T15:32:45;96572.66;;;5.18;46.55